createdAt,value
2023-04-06T00:00:31.235Z,7.60
2023-04-06T00:02:59.885Z,7.93
2023-04-06T00:05:28.790Z,6.87
2023-04-06T00:07:57.159Z,5.77
2023-04-06T00:10:25.867Z,7.63
2023-04-06T00:12:54.614Z,7.50
2023-04-06T00:15:27.422Z,8.03
2023-04-06T00:17:58.415Z,6.97
2023-04-06T00:20:27.043Z,7.97
2023-04-06T00:22:55.705Z,5.50
2023-04-06T00:25:24.223Z,7.40
2023-04-06T00:27:52.668Z,6.47
2023-04-06T00:30:21.282Z,7.43
2023-04-06T00:32:51.169Z,8.73
2023-04-06T00:35:19.761Z,7.23
2023-04-06T00:37:49.466Z,7.23
2023-04-06T00:40:18.227Z,7.63
2023-04-06T00:42:47.421Z,8.40
2023-04-06T00:45:15.870Z,7.53
2023-04-06T00:47:44.598Z,8.87
2023-04-06T00:50:14.506Z,5.20
2023-04-06T00:52:42.948Z,6.87
2023-04-06T00:55:12.093Z,8.43
2023-04-06T00:57:44.118Z,7.10
2023-04-06T01:00:14.386Z,7.67
2023-04-06T01:02:46.145Z,8.87
2023-04-06T01:05:18.133Z,7.17
2023-04-06T01:07:53.588Z,7.00
2023-04-06T01:10:27.031Z,5.63
2023-04-06T01:13:01.775Z,5.73
2023-04-06T01:15:48.914Z,6.43
2023-04-06T01:18:28.769Z,7.23
2023-04-06T01:21:16.277Z,5.80
2023-04-06T01:23:58.144Z,6.37
2023-04-06T01:26:33.965Z,4.90
2023-04-06T01:29:03.750Z,7.83
2023-04-06T01:31:32.288Z,7.13
2023-04-06T01:34:00.833Z,7.27
2023-04-06T01:36:29.352Z,8.13
2023-04-06T01:39:12.464Z,6.40
2023-04-06T01:41:42.422Z,7.20
2023-04-06T01:44:11.253Z,5.87
2023-04-06T01:46:39.759Z,8.27
2023-04-06T01:49:09.842Z,7.20
2023-04-06T01:51:41.558Z,5.77
2023-04-06T01:54:15.557Z,8.53
2023-04-06T01:57:06.972Z,5.73
2023-04-06T01:59:42.646Z,8.57
2023-04-06T02:02:20.137Z,6.07
2023-04-06T02:04:57.900Z,6.67
2023-04-06T02:07:26.657Z,5.50
2023-04-06T02:09:58.086Z,6.53
2023-04-06T02:12:37.283Z,7.00
2023-04-06T02:15:08.887Z,7.63
2023-04-06T02:17:37.876Z,7.27
2023-04-06T02:20:08.125Z,6.33
2023-04-06T02:22:38.063Z,7.77
2023-04-06T02:25:09.032Z,6.40
2023-04-06T02:27:37.714Z,5.90
2023-04-06T02:30:07.610Z,5.53
2023-04-06T02:32:36.303Z,7.03
2023-04-06T02:35:06.785Z,6.27
2023-04-06T02:37:36.680Z,7.40
2023-04-06T02:40:08.242Z,5.47
2023-04-06T02:42:37.140Z,5.13
2023-04-06T02:45:07.977Z,5.00
2023-04-06T02:47:42.973Z,7.77
2023-04-06T02:50:13.200Z,7.20
2023-04-06T02:52:49.244Z,7.33
2023-04-06T02:55:22.162Z,7.03
2023-04-06T02:57:51.193Z,8.17
2023-04-06T03:00:22.800Z,7.53
2023-04-06T03:02:51.305Z,9.00
2023-04-06T03:05:20.844Z,6.47
2023-04-06T03:07:49.948Z,5.17
2023-04-06T03:10:32.164Z,6.43
2023-04-06T03:13:00.701Z,6.60
2023-04-06T03:15:55.752Z,6.43
2023-04-06T03:18:26.043Z,6.17
2023-04-06T03:20:55.976Z,7.10
2023-04-06T03:23:28.664Z,6.00
2023-04-06T03:26:03.377Z,7.90
2023-04-06T03:28:32.029Z,6.83
2023-04-06T03:31:06.597Z,8.47
2023-04-06T03:34:01.155Z,8.30
2023-04-06T03:36:33.408Z,6.63
2023-04-06T03:39:03.052Z,6.57
2023-04-06T03:41:36.205Z,6.23
2023-04-06T03:44:29.384Z,5.57
2023-04-06T03:46:57.692Z,5.97
2023-04-06T03:49:26.949Z,8.00
2023-04-06T03:51:55.918Z,6.47
2023-04-06T03:54:24.821Z,6.70
2023-04-06T03:56:54.577Z,6.90
2023-04-06T03:59:22.973Z,9.67
2023-04-06T04:01:55.190Z,6.67
2023-04-06T04:04:23.635Z,6.83
2023-04-06T04:06:51.970Z,8.47
2023-04-06T04:09:20.404Z,5.47
2023-04-06T04:11:48.709Z,5.90
2023-04-06T04:14:18.420Z,7.10
2023-04-06T04:16:47.176Z,8.67
2023-04-06T04:19:15.710Z,7.33
2023-04-06T04:21:48.336Z,5.57
2023-04-06T04:24:21.295Z,6.87
2023-04-06T04:26:49.646Z,6.80
2023-04-06T04:29:22.266Z,7.10
2023-04-06T04:31:53.098Z,6.00
2023-04-06T04:34:24.717Z,6.70
2023-04-06T04:36:53.229Z,5.57
2023-04-06T04:39:29.933Z,6.57
2023-04-06T04:42:05.813Z,6.87
2023-04-06T04:44:38.171Z,5.83
2023-04-06T04:47:07.170Z,6.47
2023-04-06T04:49:43.624Z,6.63
2023-04-06T04:52:13.436Z,5.67
2023-04-06T04:54:53.733Z,6.30
2023-04-06T04:57:28.881Z,6.80
2023-04-06T04:59:59.024Z,7.17
2023-04-06T05:02:27.551Z,6.87
2023-04-06T05:05:12.982Z,7.37
2023-04-06T05:07:42.374Z,7.00
2023-04-06T05:10:15.977Z,6.17
2023-04-06T05:12:54.278Z,7.37
2023-04-06T05:15:24.043Z,7.40
2023-04-06T05:17:57.783Z,7.43
2023-04-06T05:20:32.760Z,8.07
2023-04-06T05:23:01.799Z,7.50
2023-04-06T05:25:30.993Z,7.67
2023-04-06T05:28:05.646Z,9.40
2023-04-06T05:30:38.842Z,7.43
2023-04-06T05:33:07.233Z,6.87
2023-04-06T05:35:49.187Z,7.60
2023-04-06T05:38:17.689Z,6.53
2023-04-06T05:40:47.034Z,8.03
2023-04-06T05:43:21.066Z,9.80
2023-04-06T05:45:57.175Z,8.40
2023-04-06T05:48:26.039Z,8.13
2023-04-06T05:50:54.453Z,10.10
2023-04-06T05:53:30.040Z,8.77
2023-04-06T05:56:03.531Z,8.40
2023-04-06T05:58:32.501Z,12.83
2023-04-06T06:01:03.894Z,10.97
2023-04-06T06:03:39.790Z,10.90
2023-04-06T06:06:08.843Z,10.07
2023-04-06T06:08:48.330Z,9.83
2023-04-06T06:11:18.982Z,11.70
2023-04-06T06:13:47.322Z,8.53
2023-04-06T06:16:18.910Z,8.30
2023-04-06T06:18:49.632Z,8.57
2023-04-06T06:21:18.689Z,9.07
2023-04-06T06:23:49.214Z,8.50
2023-04-06T06:26:21.281Z,9.70
2023-04-06T06:28:50.997Z,7.70
2023-04-06T06:31:21.621Z,7.60
2023-04-06T06:33:52.410Z,9.70
2023-04-06T06:36:23.605Z,9.70
2023-04-06T06:38:52.748Z,9.13
2023-04-06T06:41:22.886Z,8.83
2023-04-06T06:43:51.804Z,12.17
2023-04-06T06:46:22.927Z,8.87
2023-04-06T06:48:51.494Z,7.37
2023-04-06T06:51:19.882Z,9.10
2023-04-06T06:53:48.201Z,7.93
2023-04-06T06:56:16.490Z,8.20
2023-04-06T06:58:46.064Z,10.90
2023-04-06T07:01:14.485Z,11.00
2023-04-06T07:03:44.220Z,7.03
2023-04-06T07:06:12.591Z,9.77
2023-04-06T07:08:42.346Z,12.67
2023-04-06T07:11:10.681Z,9.17
2023-04-06T07:13:39.002Z,9.23
2023-04-06T07:16:07.624Z,8.23
2023-04-06T07:18:36.373Z,9.53
2023-04-06T07:21:07.601Z,9.30
2023-04-06T07:23:36.056Z,8.77
2023-04-06T07:26:04.404Z,8.37
2023-04-06T07:28:32.724Z,8.93
2023-04-06T07:31:03.176Z,8.50
2023-04-06T07:33:31.569Z,9.10
2023-04-06T07:36:00.804Z,7.97
2023-04-06T07:38:30.574Z,8.70
2023-04-06T07:40:59.014Z,9.10
2023-04-06T07:43:27.733Z,8.73
2023-04-06T07:46:00.294Z,10.57
2023-04-06T07:48:28.974Z,9.97
2023-04-06T07:51:04.170Z,8.77
2023-04-06T07:53:35.008Z,8.83
2023-04-06T07:56:03.422Z,9.10
2023-04-06T07:58:31.745Z,11.47
2023-04-06T08:01:00.524Z,9.47
2023-04-06T08:03:29.006Z,9.07
2023-04-06T08:05:57.481Z,8.73
2023-04-06T08:08:25.783Z,12.77
2023-04-06T08:10:55.504Z,9.33
2023-04-06T08:13:23.818Z,11.23
2023-04-06T08:15:52.145Z,11.23
2023-04-06T08:18:20.480Z,9.50
2023-04-06T08:20:49.792Z,16.20
2023-04-06T08:23:18.137Z,14.07
2023-04-06T08:25:46.523Z,12.90
2023-04-06T08:28:16.821Z,12.70
2023-04-06T08:30:45.628Z,12.17
2023-04-06T08:33:13.975Z,9.70
2023-04-06T08:36:01.184Z,11.00
2023-04-06T08:38:29.572Z,11.77
2023-04-06T08:40:57.945Z,12.07
2023-04-06T08:43:29.985Z,13.10
2023-04-06T08:46:00.192Z,10.00
2023-04-06T08:48:28.909Z,7.30
2023-04-06T08:50:57.646Z,8.33
2023-04-06T08:53:26.111Z,10.57
2023-04-06T08:55:54.597Z,13.13
2023-04-06T08:58:35.067Z,11.60
2023-04-06T09:01:10.455Z,11.10
2023-04-06T09:03:42.240Z,9.07
2023-04-06T09:06:12.272Z,7.87
2023-04-06T09:08:43.302Z,7.33
2023-04-06T09:11:11.994Z,11.27
2023-04-06T09:13:51.394Z,11.40
2023-04-06T09:16:21.993Z,9.93
2023-04-06T09:18:51.319Z,8.57
2023-04-06T09:21:23.769Z,8.67
2023-04-06T09:24:01.941Z,6.23
2023-04-06T09:26:30.858Z,8.63
2023-04-06T09:29:02.336Z,8.87
2023-04-06T09:31:34.565Z,12.03
2023-04-06T09:34:03.918Z,9.47
2023-04-06T09:36:33.551Z,7.20
2023-04-06T09:39:03.822Z,6.43
2023-04-06T09:41:33.826Z,7.03
2023-04-06T09:44:06.306Z,7.00
2023-04-06T09:46:55.151Z,7.00
2023-04-06T09:49:30.296Z,9.40
2023-04-06T09:52:02.465Z,5.47
2023-04-06T09:54:32.961Z,6.30
2023-04-06T09:57:10.412Z,5.63
2023-04-06T09:59:48.086Z,6.40
2023-04-06T10:02:29.954Z,5.30
2023-04-06T10:05:05.183Z,5.37
2023-04-06T10:07:35.908Z,5.30
2023-04-06T10:10:08.755Z,5.60
2023-04-06T10:12:37.153Z,6.90
2023-04-06T10:15:06.515Z,5.67
2023-04-06T10:17:36.189Z,8.00
2023-04-06T10:20:10.706Z,6.63
2023-04-06T10:22:51.613Z,6.30
2023-04-06T10:25:19.913Z,6.83
2023-04-06T10:27:48.232Z,4.87
2023-04-06T10:30:19.000Z,8.37
2023-04-06T10:32:48.705Z,6.27
2023-04-06T10:35:18.434Z,7.30
2023-04-06T10:37:55.134Z,5.67
2023-04-06T10:40:27.203Z,7.13
2023-04-06T10:42:57.857Z,8.27
2023-04-06T10:45:28.070Z,7.13
2023-04-06T10:48:00.184Z,11.47
2023-04-06T10:50:30.770Z,6.53
2023-04-06T10:53:03.878Z,6.93
2023-04-06T10:55:33.698Z,7.67
2023-04-06T10:58:01.999Z,7.50
2023-04-06T11:00:39.712Z,6.70
2023-04-06T11:03:17.583Z,7.17
2023-04-06T11:05:48.138Z,6.33
2023-04-06T11:08:29.025Z,7.10
2023-04-06T11:11:08.402Z,7.93
2023-04-06T11:13:44.439Z,7.17
2023-04-06T11:16:17.727Z,7.13
2023-04-06T11:18:53.055Z,7.70
2023-04-06T11:21:22.207Z,5.63
2023-04-06T11:23:50.551Z,6.67
2023-04-06T11:26:18.935Z,6.90
2023-04-06T11:28:47.387Z,4.10
2023-04-06T11:31:15.802Z,6.60
2023-04-06T11:33:44.136Z,5.43
2023-04-06T11:36:16.604Z,5.87
2023-04-06T11:38:45.599Z,8.03
2023-04-06T11:41:13.972Z,6.73
2023-04-06T11:43:49.620Z,4.40
2023-04-06T11:46:21.418Z,4.83
2023-04-06T11:48:49.975Z,5.57
2023-04-06T11:51:26.035Z,6.60
2023-04-06T11:53:54.437Z,4.70
2023-04-06T11:56:31.449Z,5.03
2023-04-06T11:59:01.373Z,6.20
2023-04-06T12:01:30.884Z,5.47
2023-04-06T12:04:00.521Z,4.40
2023-04-06T12:06:31.038Z,4.57
2023-04-06T12:08:59.313Z,7.07
2023-04-06T12:11:27.705Z,5.53
2023-04-06T12:13:56.138Z,6.30
2023-04-06T12:16:24.507Z,5.33
2023-04-06T12:18:53.756Z,6.47
2023-04-06T12:21:22.083Z,7.30
2023-04-06T12:23:51.788Z,10.87
2023-04-06T12:26:20.179Z,5.27
2023-04-06T12:28:48.497Z,6.17
2023-04-06T12:31:17.985Z,5.70
2023-04-06T12:33:49.065Z,7.70
2023-04-06T12:36:20.158Z,5.03
2023-04-06T12:38:51.807Z,4.90
2023-04-06T12:41:20.243Z,5.70
2023-04-06T12:43:49.139Z,5.00
2023-04-06T12:46:17.568Z,5.63
2023-04-06T12:48:45.981Z,5.60
2023-04-06T12:51:14.484Z,7.80
2023-04-06T12:53:43.391Z,7.70
2023-04-06T12:56:18.642Z,6.90
2023-04-06T12:58:47.604Z,5.43
2023-04-06T13:01:16.160Z,6.40
2023-04-06T13:03:44.717Z,5.50
2023-04-06T13:06:14.070Z,6.00
2023-04-06T13:08:42.779Z,6.07
2023-04-06T13:11:11.314Z,5.63
2023-04-06T13:13:41.104Z,5.93
2023-04-06T13:16:11.273Z,5.53
2023-04-06T13:18:40.481Z,4.57
2023-04-06T13:21:09.468Z,6.47
2023-04-06T13:23:38.006Z,6.03
2023-04-06T13:26:08.550Z,8.03
2023-04-06T13:28:40.308Z,7.33
2023-04-06T13:31:09.322Z,6.93
2023-04-06T13:33:38.082Z,5.10
2023-04-06T13:36:08.677Z,5.63
2023-04-06T13:38:39.849Z,5.77
2023-04-06T13:41:08.500Z,6.13
2023-04-06T13:43:36.925Z,7.57
2023-04-06T13:46:07.023Z,7.63
2023-04-06T13:48:35.471Z,6.20
2023-04-06T13:51:11.384Z,9.13
2023-04-06T13:53:41.202Z,6.00
2023-04-06T13:56:10.940Z,9.07
2023-04-06T13:58:39.306Z,5.20
2023-04-06T14:01:11.489Z,7.57
2023-04-06T14:03:43.136Z,17.93
2023-04-06T14:06:27.480Z,7.17
2023-04-06T14:08:59.250Z,5.00
2023-04-06T14:11:27.656Z,6.40
2023-04-06T14:13:58.026Z,5.87
2023-04-06T14:16:28.379Z,5.83
2023-04-06T14:18:58.833Z,9.43
2023-04-06T14:21:27.465Z,5.43
2023-04-06T14:23:58.014Z,4.80
2023-04-06T14:26:28.689Z,4.63
2023-04-06T14:28:57.086Z,8.47
2023-04-06T14:31:27.400Z,5.47
2023-04-06T14:33:56.383Z,7.23
2023-04-06T14:36:25.005Z,5.30
2023-04-06T14:38:53.452Z,6.80
2023-04-06T14:41:24.326Z,6.73
2023-04-06T14:43:53.653Z,6.70
2023-04-06T14:46:22.569Z,5.73
2023-04-06T14:48:52.957Z,7.00
2023-04-06T14:51:21.640Z,6.40
2023-04-06T14:53:50.042Z,6.33
2023-04-06T14:56:23.347Z,6.97
2023-04-06T14:58:52.549Z,6.80
2023-04-06T15:01:21.884Z,8.33
2023-04-06T15:03:51.967Z,8.13
2023-04-06T15:06:21.812Z,8.23
2023-04-06T15:08:51.206Z,6.97
2023-04-06T15:11:19.561Z,6.00
2023-04-06T15:13:48.104Z,6.70
2023-04-06T15:16:16.927Z,5.27
2023-04-06T15:18:45.464Z,6.93
2023-04-06T15:21:15.496Z,6.97
2023-04-06T15:23:43.916Z,5.93
2023-04-06T15:26:12.226Z,8.27
2023-04-06T15:28:40.634Z,6.23
2023-04-06T15:31:32.920Z,5.80
2023-04-06T15:34:04.888Z,5.97
2023-04-06T15:36:35.102Z,7.00
2023-04-06T15:39:04.756Z,8.63
2023-04-06T15:41:33.513Z,6.80
2023-04-06T15:44:01.886Z,7.07
2023-04-06T15:46:30.532Z,6.30
2023-04-06T15:48:58.915Z,7.37
2023-04-06T15:51:27.540Z,5.93
2023-04-06T15:53:58.676Z,5.50
2023-04-06T15:56:27.137Z,7.03
2023-04-06T15:58:55.499Z,8.40
2023-04-06T16:01:25.921Z,6.57
2023-04-06T16:03:54.466Z,6.53
2023-04-06T16:06:23.047Z,7.33
2023-04-06T16:08:51.419Z,7.43
2023-04-06T16:11:21.344Z,8.10
2023-04-06T16:13:54.964Z,11.07
2023-04-06T16:16:24.155Z,9.77
2023-04-06T16:18:52.688Z,7.07
2023-04-06T16:21:21.335Z,10.73
2023-04-06T16:23:49.752Z,9.80
2023-04-06T16:26:21.681Z,6.50
2023-04-06T16:28:51.441Z,10.33
2023-04-06T16:31:22.114Z,12.77
2023-04-06T16:33:58.522Z,9.77
2023-04-06T16:36:28.014Z,6.77
2023-04-06T16:38:56.863Z,5.40
2023-04-06T16:41:27.721Z,6.13
2023-04-06T16:43:57.582Z,7.43
2023-04-06T16:46:32.004Z,6.23
2023-04-06T16:49:00.698Z,4.30
2023-04-06T16:51:37.923Z,5.57
2023-04-06T16:54:08.767Z,4.80
2023-04-06T16:56:38.672Z,5.93
2023-04-06T16:59:09.224Z,4.97
2023-04-06T17:01:37.861Z,6.10
2023-04-06T17:04:06.705Z,4.03
2023-04-06T17:06:35.574Z,4.43
2023-04-06T17:09:04.071Z,5.67
2023-04-06T17:11:45.678Z,5.73
2023-04-06T17:14:16.482Z,5.37
2023-04-06T17:16:47.550Z,3.77
2023-04-06T17:19:16.149Z,6.17
2023-04-06T17:21:44.514Z,3.13
2023-04-06T17:24:12.994Z,2.37
2023-04-06T17:26:47.356Z,2.40
2023-04-06T17:29:17.478Z,2.93
2023-04-06T17:31:46.318Z,3.47
2023-04-06T17:34:15.260Z,4.80
2023-04-06T17:36:43.866Z,4.17
2023-04-06T17:39:14.698Z,3.67
2023-04-06T17:41:46.315Z,3.13
2023-04-06T17:44:16.306Z,4.07
2023-04-06T17:46:44.871Z,3.33
2023-04-06T17:49:13.516Z,4.27
2023-04-06T17:51:41.996Z,3.37
2023-04-06T17:54:10.516Z,3.07
2023-04-06T17:56:39.035Z,5.20
2023-04-06T17:59:16.284Z,3.10
2023-04-06T18:01:45.964Z,7.80
2023-04-06T18:04:14.683Z,3.73
2023-04-06T18:06:43.968Z,2.60
2023-04-06T18:09:12.435Z,8.40
2023-04-06T18:11:41.305Z,6.83
2023-04-06T18:14:11.226Z,8.43
2023-04-06T18:16:42.408Z,7.23
2023-04-06T18:19:12.993Z,6.50
2023-04-06T18:21:42.019Z,6.97
2023-04-06T18:24:15.131Z,6.10
2023-04-06T18:26:51.641Z,5.43
2023-04-06T18:29:20.499Z,4.60
2023-04-06T18:31:54.840Z,3.87
2023-04-06T18:34:23.988Z,5.00
2023-04-06T18:36:52.630Z,5.23
2023-04-06T18:39:23.705Z,5.80
2023-04-06T18:41:52.305Z,4.23
2023-04-06T18:44:21.252Z,6.30
2023-04-06T18:46:55.627Z,4.73
2023-04-06T18:49:29.147Z,6.93
2023-04-06T18:52:00.580Z,6.00
2023-04-06T18:54:29.398Z,5.23
2023-04-06T18:57:01.024Z,6.70
2023-04-06T18:59:31.834Z,7.17
2023-04-06T19:02:01.827Z,5.00
2023-04-06T19:04:31.884Z,6.17
2023-04-06T19:07:01.063Z,6.03
2023-04-06T19:09:29.506Z,4.87
2023-04-06T19:12:01.370Z,5.80
2023-04-06T19:14:33.880Z,7.17
2023-04-06T19:17:03.622Z,5.90
2023-04-06T19:19:32.050Z,6.13
2023-04-06T19:22:00.728Z,6.50
2023-04-06T19:24:29.899Z,5.87
2023-04-06T19:26:58.302Z,7.30
2023-04-06T19:29:26.857Z,5.97
2023-04-06T19:31:55.314Z,5.57
2023-04-06T19:34:25.295Z,6.10
2023-04-06T19:36:53.848Z,6.63
2023-04-06T19:39:22.454Z,5.57
2023-04-06T19:41:51.217Z,5.07
2023-04-06T19:44:19.885Z,6.10
2023-04-06T19:46:48.360Z,5.07
2023-04-06T19:49:16.754Z,5.13
2023-04-06T19:51:46.558Z,6.47
2023-04-06T19:54:14.891Z,6.47
2023-04-06T19:56:43.175Z,5.60
2023-04-06T19:59:11.982Z,6.70
2023-04-06T20:01:40.796Z,5.87
2023-04-06T20:04:11.129Z,6.03
2023-04-06T20:06:39.658Z,7.00
2023-04-06T20:09:10.397Z,6.13
2023-04-06T20:11:38.803Z,5.30
2023-04-06T20:14:07.540Z,5.10
2023-04-06T20:16:36.087Z,6.33
2023-04-06T20:19:04.706Z,5.60
2023-04-06T20:21:33.055Z,6.80
2023-04-06T20:24:01.412Z,5.57
2023-04-06T20:26:31.230Z,10.73
2023-04-06T20:28:59.611Z,5.43
2023-04-06T20:31:28.379Z,5.73
2023-04-06T20:33:57.224Z,7.93
2023-04-06T20:36:25.699Z,7.17
2023-04-06T20:38:54.930Z,6.17
2023-04-06T20:41:23.341Z,7.40
2023-04-06T20:43:53.170Z,9.87
2023-04-06T20:46:21.526Z,7.43
2023-04-06T20:48:50.517Z,10.90
2023-04-06T20:51:20.477Z,7.17
2023-04-06T20:53:48.977Z,8.93
2023-04-06T20:56:17.353Z,7.70
2023-04-06T20:58:45.959Z,7.00
2023-04-06T21:01:17.380Z,7.07
2023-04-06T21:03:46.525Z,6.67
2023-04-06T21:06:14.932Z,7.17
2023-04-06T21:08:43.475Z,6.63
2023-04-06T21:11:11.967Z,7.00
2023-04-06T21:13:40.379Z,8.67
2023-04-06T21:16:10.321Z,8.13
2023-04-06T21:18:40.402Z,9.47
2023-04-06T21:21:08.705Z,6.67
2023-04-06T21:23:37.152Z,7.17
2023-04-06T21:26:06.145Z,8.20
2023-04-06T21:28:34.485Z,8.23
2023-04-06T21:31:08.515Z,9.13
2023-04-06T21:33:37.054Z,8.63
2023-04-06T21:36:10.600Z,7.70
2023-04-06T21:38:39.028Z,6.43
2023-04-06T21:41:07.611Z,7.13
2023-04-06T21:43:36.025Z,7.50
2023-04-06T21:46:04.384Z,7.20
2023-04-06T21:48:32.753Z,6.47
2023-04-06T21:51:01.165Z,7.33
2023-04-06T21:53:30.936Z,8.80
2023-04-06T21:56:00.901Z,7.40
2023-04-06T21:58:29.241Z,7.00
2023-04-06T22:00:58.574Z,7.30
2023-04-06T22:03:27.233Z,7.23
2023-04-06T22:05:55.748Z,11.63
2023-04-06T22:08:33.311Z,10.33
2023-04-06T22:11:09.687Z,9.47
2023-04-06T22:13:38.840Z,9.60
2023-04-06T22:16:08.370Z,7.80
2023-04-06T22:18:39.022Z,9.20
2023-04-06T22:21:07.891Z,9.63
2023-04-06T22:23:41.981Z,8.47
2023-04-06T22:26:12.740Z,8.53
2023-04-06T22:28:42.225Z,6.80
2023-04-06T22:31:10.711Z,7.73
2023-04-06T22:33:38.993Z,6.53
2023-04-06T22:36:08.138Z,6.43
2023-04-06T22:38:37.143Z,6.43
2023-04-06T22:41:07.186Z,7.90
2023-04-06T22:43:38.063Z,7.63
2023-04-06T22:46:06.591Z,6.63
2023-04-06T22:48:34.967Z,8.73
2023-04-06T22:51:03.289Z,6.63
2023-04-06T22:53:31.648Z,7.57
2023-04-06T22:55:59.983Z,7.03
2023-04-06T22:58:28.262Z,7.40
2023-04-06T23:00:57.977Z,5.87
2023-04-06T23:03:26.406Z,5.57
2023-04-06T23:05:54.782Z,7.10
2023-04-06T23:08:23.129Z,5.67
2023-04-06T23:10:52.316Z,6.97
2023-04-06T23:13:20.667Z,6.87
2023-04-06T23:15:49.103Z,5.80
2023-04-06T23:18:18.827Z,6.27
2023-04-06T23:20:47.158Z,6.00
2023-04-06T23:23:15.551Z,6.57
2023-04-06T23:25:44.162Z,7.23
2023-04-06T23:28:12.458Z,5.90
2023-04-06T23:30:40.776Z,6.40
2023-04-06T23:33:09.170Z,5.03
2023-04-06T23:35:38.913Z,5.93
2023-04-06T23:38:07.230Z,5.40
2023-04-06T23:40:38.658Z,5.40
2023-04-06T23:43:06.964Z,5.10
2023-04-06T23:45:35.275Z,4.60
2023-04-06T23:48:03.630Z,6.33
2023-04-06T23:50:31.998Z,6.77
2023-04-06T23:53:01.966Z,6.07
2023-04-06T23:55:30.454Z,5.57
2023-04-06T23:57:58.796Z,6.17
